createdAt,value
2022-08-05T00:00:50.250Z,55.31
2022-08-05T00:06:38.905Z,54.60
2022-08-05T00:09:13.034Z,54.95
2022-08-05T00:11:48.335Z,55.93
2022-08-05T00:14:17.194Z,56.48
2022-08-05T00:16:53.655Z,55.79
2022-08-05T00:19:22.291Z,57.35
2022-08-05T00:21:49.410Z,55.16
2022-08-05T00:24:16.246Z,56.66
2022-08-05T00:26:52.093Z,57.99
2022-08-05T00:29:18.939Z,57.30
2022-08-05T00:32:10.185Z,56.06
2022-08-05T00:34:54.152Z,57.56
2022-08-05T00:37:22.459Z,58.45
2022-08-05T00:39:58.102Z,57.84
2022-08-05T00:42:36.841Z,57.65
2022-08-05T00:45:05.455Z,57.85
2022-08-05T00:47:57.002Z,59.50
2022-08-05T00:50:21.866Z,60.13
2022-08-05T00:52:52.082Z,58.59
2022-08-05T00:55:19.911Z,59.46
2022-08-05T00:57:58.127Z,59.49
2022-08-05T01:00:26.689Z,59.41
2022-08-05T01:02:53.219Z,60.26
2022-08-05T01:05:19.736Z,59.58
2022-08-05T01:08:29.824Z,59.66
2022-08-05T01:10:52.926Z,59.21
2022-08-05T01:13:58.982Z,58.72
2022-08-05T01:16:45.008Z,60.06
2022-08-05T01:19:46.129Z,60.50
2022-08-05T01:22:18.777Z,60.23
2022-08-05T01:24:50.252Z,59.62
2022-08-05T01:27:35.406Z,60.60
2022-08-05T01:30:18.970Z,61.00
2022-08-05T01:32:47.213Z,61.65
2022-08-05T01:35:51.596Z,58.80
2022-08-05T01:38:04.454Z,60.81
2022-08-05T01:40:32.154Z,62.61
2022-08-05T01:43:00.814Z,63.19
2022-08-05T01:45:34.921Z,61.70
2022-08-05T01:48:10.370Z,60.74
2022-08-05T01:50:38.693Z,61.25
2022-08-05T01:53:09.818Z,61.08
2022-08-05T01:55:39.406Z,63.22
2022-08-05T01:58:09.563Z,60.90
2022-08-05T02:00:43.831Z,62.33
2022-08-05T02:03:24.389Z,60.90
2022-08-05T02:05:59.719Z,60.90
2022-08-05T02:08:31.188Z,61.71
2022-08-05T02:11:02.363Z,62.07
2022-08-05T02:13:36.441Z,61.71
2022-08-05T02:16:19.853Z,62.01
2022-08-05T02:18:52.659Z,62.90
2022-08-05T02:21:21.973Z,63.01
2022-08-05T02:23:52.224Z,63.35
2022-08-05T02:26:33.497Z,63.13
2022-08-05T02:29:01.145Z,67.88
2022-08-05T02:31:35.050Z,66.47
2022-08-05T02:34:03.785Z,66.69
2022-08-05T02:36:34.292Z,67.20
2022-08-05T02:39:03.182Z,67.09
2022-08-05T02:41:36.450Z,68.25
2022-08-05T02:44:19.530Z,68.46
2022-08-05T02:46:58.780Z,69.00
2022-08-05T02:49:35.768Z,69.22
2022-08-05T02:52:04.849Z,71.09
2022-08-05T02:54:35.740Z,73.13
2022-08-05T02:57:03.845Z,72.90
2022-08-05T02:59:47.828Z,72.75
2022-08-05T03:02:22.781Z,73.32
2022-08-05T03:04:53.270Z,73.33
2022-08-05T03:07:40.430Z,72.91
2022-08-05T03:10:07.164Z,71.77
2022-08-05T03:12:51.918Z,71.96
2022-08-05T03:15:20.112Z,73.14
2022-08-05T03:17:46.640Z,72.96
2022-08-05T03:20:13.463Z,72.48
2022-08-05T03:22:46.861Z,73.79
2022-08-05T03:25:33.820Z,73.59
2022-08-05T03:28:05.452Z,73.55
2022-08-05T03:30:33.968Z,75.08
2022-08-05T03:33:05.784Z,74.05
2022-08-05T03:35:40.519Z,75.36
2022-08-05T03:38:08.179Z,74.57
2022-08-05T03:40:34.675Z,74.85
2022-08-05T03:43:59.198Z,76.89
2022-08-05T03:45:57.605Z,76.87
2022-08-05T03:48:25.969Z,77.55
2022-08-05T03:52:37.149Z,78.67
2022-08-05T03:55:50.016Z,80.31
2022-08-05T03:56:42.037Z,78.39
2022-08-05T03:59:14.999Z,81.19
2022-08-05T04:01:47.963Z,80.02
2022-08-05T04:04:16.798Z,79.74
2022-08-05T04:06:51.084Z,80.65
2022-08-05T04:09:26.009Z,83.90
2022-08-05T04:11:53.471Z,86.40
2022-08-05T04:14:30.233Z,84.29
2022-08-05T04:16:57.557Z,82.70
2022-08-05T04:19:24.016Z,81.01
2022-08-05T04:22:08.319Z,83.37
2022-08-05T04:24:37.827Z,82.94
2022-08-05T04:27:10.867Z,85.01
2022-08-05T04:29:37.335Z,81.75
2022-08-05T04:32:03.847Z,81.56
2022-08-05T04:34:32.512Z,81.66
2022-08-05T04:37:00.848Z,80.14
2022-08-05T04:39:29.842Z,79.97
2022-08-05T04:41:56.335Z,82.04
2022-08-05T04:44:30.017Z,84.03
2022-08-05T04:47:09.400Z,87.51
2022-08-05T04:50:01.515Z,85.43
2022-08-05T04:52:23.591Z,88.36
2022-08-05T04:54:53.995Z,87.56
2022-08-05T04:57:28.611Z,86.53
2022-08-05T04:59:55.835Z,87.59
2022-08-05T05:02:37.433Z,87.18
2022-08-05T05:05:26.270Z,87.78
2022-08-05T05:08:01.720Z,86.48
2022-08-05T05:10:29.591Z,87.57
2022-08-05T05:12:56.381Z,86.45
2022-08-05T05:15:57.545Z,86.84
2022-08-05T05:18:31.460Z,87.11
2022-08-05T05:21:01.123Z,88.72
2022-08-05T05:23:39.327Z,89.97
2022-08-05T05:26:14.116Z,86.51
2022-08-05T05:28:44.754Z,84.91
2022-08-05T05:31:11.619Z,85.07
2022-08-05T05:33:58.911Z,85.04
2022-08-05T05:36:24.477Z,86.98
2022-08-05T05:38:55.404Z,86.91
2022-08-05T05:41:21.920Z,89.54
2022-08-05T05:43:58.354Z,90.85
2022-08-05T05:46:27.016Z,90.93
2022-08-05T05:48:53.532Z,90.43
2022-08-05T05:51:20.672Z,91.25
2022-08-05T05:53:58.367Z,92.28
2022-08-05T05:56:32.618Z,92.39
2022-08-05T05:59:03.252Z,92.68
2022-08-05T06:01:36.882Z,91.83
2022-08-05T06:04:05.065Z,87.88
2022-08-05T06:06:34.702Z,89.96
2022-08-05T06:09:01.882Z,91.01
2022-08-05T06:11:30.942Z,88.70
2022-08-05T06:13:57.468Z,88.95
2022-08-05T06:16:30.385Z,87.44
2022-08-05T06:18:59.968Z,89.53
2022-08-05T06:21:36.091Z,88.15
2022-08-05T06:24:11.524Z,88.87
2022-08-05T06:26:38.704Z,90.80
2022-08-05T06:29:06.427Z,89.06
2022-08-05T06:31:51.482Z,90.56
2022-08-05T06:34:19.922Z,89.76
2022-08-05T06:36:58.150Z,94.11
2022-08-05T06:39:27.856Z,96.46
2022-08-05T06:41:56.068Z,96.27
2022-08-05T06:44:25.196Z,97.10
2022-08-05T06:46:52.579Z,94.34
2022-08-05T06:49:21.123Z,92.42
2022-08-05T06:52:07.520Z,91.14
2022-08-05T06:54:53.908Z,93.71
2022-08-05T06:57:57.131Z,93.14
2022-08-05T07:00:07.279Z,90.94
2022-08-05T07:02:46.246Z,91.31
2022-08-05T07:05:18.517Z,90.76
2022-08-05T07:07:48.906Z,89.69
2022-08-05T07:10:16.373Z,89.97
2022-08-05T07:13:02.136Z,90.13
2022-08-05T07:16:00.992Z,90.35
2022-08-05T07:18:31.417Z,91.17
2022-08-05T07:20:58.189Z,93.50
2022-08-05T07:23:31.308Z,91.67
2022-08-05T07:25:57.779Z,93.28
2022-08-05T07:28:25.237Z,90.84
2022-08-05T07:30:54.715Z,93.57
2022-08-05T07:33:35.035Z,94.81
2022-08-05T07:36:20.732Z,94.52
2022-08-05T07:38:48.943Z,88.14
2022-08-05T07:42:13.795Z,88.61
2022-08-05T07:44:14.344Z,91.03
2022-08-05T07:46:49.257Z,89.25
2022-08-05T07:49:17.985Z,90.20
2022-08-05T07:51:53.138Z,86.85
2022-08-05T07:54:26.621Z,83.55
2022-08-05T07:57:13.298Z,81.02
2022-08-05T07:59:43.291Z,80.58
2022-08-05T08:02:15.715Z,79.54
2022-08-05T08:04:44.842Z,80.50
2022-08-05T08:07:11.787Z,79.04
2022-08-05T08:09:38.491Z,79.36
2022-08-05T08:12:14.341Z,77.87
2022-08-05T08:14:47.103Z,77.43
2022-08-05T08:17:21.266Z,75.57
2022-08-05T08:20:22.756Z,76.37
2022-08-05T08:22:35.192Z,75.28
2022-08-05T08:25:03.190Z,74.27
2022-08-05T08:27:35.818Z,76.51
2022-08-05T08:30:29.382Z,73.85
2022-08-05T08:33:02.698Z,74.40
2022-08-05T08:35:41.403Z,74.31
2022-08-05T08:38:35.858Z,73.88
2022-08-05T08:41:10.081Z,74.74
2022-08-05T08:45:18.223Z,73.72
2022-08-05T08:46:31.750Z,73.68
2022-08-05T08:50:03.952Z,73.62
2022-08-05T08:52:02.821Z,74.87
2022-08-05T08:54:32.435Z,73.60
2022-08-05T08:56:59.290Z,74.83
2022-08-05T08:59:27.761Z,72.36
2022-08-05T09:02:01.286Z,73.83
2022-08-05T09:04:30.086Z,75.23
2022-08-05T09:06:57.488Z,73.39
2022-08-05T09:09:24.891Z,72.29
2022-08-05T09:11:57.815Z,72.99
2022-08-05T09:14:58.277Z,72.03
2022-08-05T09:17:42.303Z,72.44
2022-08-05T09:20:05.712Z,72.07
2022-08-05T09:23:09.515Z,70.01
2022-08-05T09:25:59.803Z,69.24
2022-08-05T09:28:32.500Z,68.71
2022-08-05T09:31:43.687Z,68.04
2022-08-05T09:34:06.534Z,68.80
2022-08-05T09:36:59.687Z,69.51
2022-08-05T09:39:41.131Z,68.42
2022-08-05T09:42:17.260Z,68.95
2022-08-05T09:44:49.406Z,68.27
2022-08-05T09:47:20.498Z,65.97
2022-08-05T09:49:54.498Z,66.22
2022-08-05T09:52:28.318Z,66.41
2022-08-05T09:54:55.948Z,67.84
2022-08-05T09:57:48.886Z,65.10
2022-08-05T10:00:24.730Z,65.37
2022-08-05T10:02:54.657Z,64.22
2022-08-05T10:05:23.688Z,61.91
2022-08-05T10:08:36.831Z,61.89
2022-08-05T10:10:54.347Z,58.19
2022-08-05T10:13:31.548Z,60.05
2022-08-05T10:16:29.955Z,58.40
2022-08-05T10:18:56.590Z,59.04
2022-08-05T10:21:23.761Z,59.02
2022-08-05T10:23:58.974Z,58.27
2022-08-05T10:26:32.551Z,58.74
2022-08-05T10:29:00.779Z,58.99
2022-08-05T10:33:01.487Z,59.07
2022-08-05T10:34:13.806Z,59.69
2022-08-05T10:36:41.437Z,58.89
2022-08-05T10:39:24.274Z,59.61
2022-08-05T10:42:01.455Z,60.21
2022-08-05T10:44:29.500Z,60.51
2022-08-05T10:46:56.803Z,58.86
2022-08-05T10:49:27.052Z,60.12
2022-08-05T10:52:00.732Z,59.46
2022-08-05T10:54:56.845Z,59.61
2022-08-05T10:57:30.936Z,58.29
2022-08-05T11:00:19.213Z,58.38
2022-08-05T11:03:23.573Z,58.43
2022-08-05T11:06:14.697Z,58.71
2022-08-05T11:09:01.492Z,61.27
2022-08-05T11:11:44.310Z,59.54
2022-08-05T11:14:57.872Z,59.27
2022-08-05T11:17:56.828Z,59.44
2022-08-05T11:20:32.930Z,57.85
2022-08-05T11:23:08.839Z,58.66
2022-08-05T11:26:05.418Z,57.49
2022-08-05T11:28:25.135Z,56.94
2022-08-05T11:30:56.213Z,56.39
2022-08-05T11:33:44.075Z,55.01
2022-08-05T11:36:14.740Z,55.63
2022-08-05T11:38:51.074Z,54.83
2022-08-05T11:41:58.154Z,56.26
2022-08-05T11:44:40.623Z,55.67
2022-08-05T11:47:12.054Z,54.55
2022-08-05T11:49:43.272Z,52.29
2022-08-05T11:52:23.376Z,52.82
2022-08-05T11:54:56.563Z,50.27
2022-08-05T11:57:28.243Z,48.39
2022-08-05T11:59:57.385Z,49.77
2022-08-05T12:02:30.367Z,48.75
2022-08-05T12:04:59.968Z,49.66
2022-08-05T12:08:03.413Z,48.98
2022-08-05T12:10:17.879Z,50.22
2022-08-05T12:12:46.644Z,49.12
2022-08-05T12:15:37.778Z,49.00
2022-08-05T12:18:10.525Z,49.92
2022-08-05T12:20:39.054Z,48.21
2022-08-05T12:23:09.716Z,48.25
2022-08-05T12:25:56.895Z,49.45
2022-08-05T12:28:33.355Z,48.08
2022-08-05T12:31:02.282Z,49.47
2022-08-05T12:33:36.403Z,48.59
2022-08-05T12:36:07.984Z,49.63
2022-08-05T12:38:40.006Z,48.11
2022-08-05T12:41:13.101Z,47.97
2022-08-05T12:43:53.967Z,50.18
2022-08-05T12:46:28.766Z,49.67
2022-08-05T12:49:14.493Z,48.77
2022-08-05T12:52:12.789Z,50.62
2022-08-05T12:54:32.193Z,50.01
2022-08-05T12:57:03.808Z,50.43
2022-08-05T13:00:08.982Z,51.69
2022-08-05T13:02:21.969Z,51.35
2022-08-05T13:04:54.987Z,50.92
2022-08-05T13:07:56.033Z,51.58
2022-08-05T13:10:13.556Z,52.05
2022-08-05T13:12:50.694Z,52.08
2022-08-05T13:15:41.076Z,52.51
2022-08-05T13:18:19.741Z,51.07
2022-08-05T13:20:47.095Z,50.69
2022-08-05T13:23:13.632Z,51.81
2022-08-05T13:25:58.866Z,52.54
2022-08-05T13:28:26.730Z,52.83
2022-08-05T13:30:53.615Z,53.16
2022-08-05T13:34:22.288Z,53.87
2022-08-05T13:36:09.315Z,52.07
2022-08-05T13:38:41.932Z,52.60
2022-08-05T13:41:09.677Z,52.57
2022-08-05T13:43:45.858Z,52.59
2022-08-05T13:46:50.960Z,53.15
2022-08-05T13:49:11.890Z,53.62
2022-08-05T13:51:41.041Z,52.79
2022-08-05T13:54:13.241Z,53.79
2022-08-05T13:56:44.923Z,58.25
2022-08-05T13:59:19.608Z,59.19
2022-08-05T14:01:57.784Z,60.28
2022-08-05T14:04:49.769Z,60.69
2022-08-05T14:07:55.718Z,61.31
2022-08-05T14:10:13.604Z,61.38
2022-08-05T14:12:48.771Z,61.98
2022-08-05T14:16:08.432Z,62.51
2022-08-05T14:18:02.430Z,63.16
2022-08-05T14:20:30.796Z,63.45
2022-08-05T14:22:57.995Z,62.15
2022-08-05T14:25:28.205Z,62.95
2022-08-05T14:27:56.528Z,63.05
2022-08-05T14:30:26.540Z,63.36
2022-08-05T14:32:54.335Z,62.96
2022-08-05T14:35:23.333Z,63.53
2022-08-05T14:38:04.201Z,65.47
2022-08-05T14:40:30.893Z,66.18
2022-08-05T14:42:57.340Z,66.66
2022-08-05T14:45:24.734Z,66.10
2022-08-05T14:48:03.857Z,66.25
2022-08-05T14:50:32.500Z,67.43
2022-08-05T14:53:00.250Z,67.13
2022-08-05T14:55:28.762Z,68.49
2022-08-05T14:58:11.838Z,68.14
2022-08-05T15:00:39.596Z,68.62
2022-08-05T15:03:25.435Z,68.97
2022-08-05T15:06:07.550Z,68.60
2022-08-05T15:08:59.314Z,70.18
2022-08-05T15:11:24.795Z,70.79
2022-08-05T15:14:11.323Z,70.82
2022-08-05T15:16:47.117Z,72.16
2022-08-05T15:19:23.183Z,72.43
2022-08-05T15:21:50.224Z,72.95
2022-08-05T15:24:16.714Z,72.58
2022-08-05T15:26:43.198Z,71.95
2022-08-05T15:29:10.375Z,71.72
2022-08-05T15:31:36.900Z,71.33
2022-08-05T15:34:19.452Z,71.79
2022-08-05T15:36:49.818Z,71.77
2022-08-05T15:41:00.281Z,72.02
2022-08-05T15:42:02.803Z,70.55
2022-08-05T15:44:49.098Z,71.16
2022-08-05T15:47:16.459Z,71.60
2022-08-05T15:49:55.200Z,72.16
2022-08-05T15:52:51.930Z,72.29
2022-08-05T15:55:15.972Z,71.98
2022-08-05T15:57:43.227Z,71.74
2022-08-05T16:00:12.253Z,72.16
2022-08-05T16:02:43.464Z,72.58
2022-08-05T16:05:11.322Z,72.27
2022-08-05T16:07:37.864Z,71.10
2022-08-05T16:10:04.868Z,71.92
2022-08-05T16:12:36.163Z,70.75
2022-08-05T16:15:04.230Z,70.26
2022-08-05T16:17:31.397Z,70.48
2022-08-05T16:20:05.608Z,70.47
2022-08-05T16:22:38.252Z,69.98
2022-08-05T16:25:08.058Z,70.14
2022-08-05T16:28:01.085Z,69.63
2022-08-05T16:30:26.163Z,69.86
2022-08-05T16:32:52.995Z,69.30
2022-08-05T16:35:19.416Z,69.08
2022-08-05T16:38:15.171Z,69.13
2022-08-05T16:40:41.220Z,69.18
2022-08-05T16:43:07.714Z,69.14
2022-08-05T16:46:05.267Z,68.77
2022-08-05T16:48:25.627Z,68.43
2022-08-05T16:50:53.268Z,67.95
2022-08-05T16:53:22.933Z,67.80
2022-08-05T16:55:59.098Z,68.48
2022-08-05T16:58:26.033Z,67.13
2022-08-05T17:00:52.794Z,67.40
2022-08-05T17:03:20.117Z,66.06
2022-08-05T17:05:51.721Z,64.37
2022-08-05T17:08:36.733Z,62.45
2022-08-05T17:11:08.932Z,62.55
2022-08-05T17:13:41.604Z,62.15
2022-08-05T17:16:29.893Z,63.06
2022-08-05T17:18:55.317Z,62.86
2022-08-05T17:21:23.777Z,62.47
2022-08-05T17:24:05.606Z,61.87
2022-08-05T17:26:35.190Z,60.34
2022-08-05T17:29:07.490Z,60.13
2022-08-05T17:31:56.548Z,58.88
2022-08-05T17:34:30.093Z,58.30
2022-08-05T17:36:59.382Z,57.74
2022-08-05T17:39:34.193Z,57.89
2022-08-05T17:42:20.337Z,56.78
2022-08-05T17:44:50.545Z,55.39
2022-08-05T17:47:23.601Z,55.90
2022-08-05T17:49:59.696Z,56.12
2022-08-05T17:52:30.226Z,54.98
2022-08-05T17:54:56.741Z,55.09
2022-08-05T17:57:23.217Z,54.74
2022-08-05T18:00:03.069Z,54.77
2022-08-05T18:02:30.306Z,53.59
2022-08-05T18:04:57.737Z,52.62
2022-08-05T18:07:25.352Z,52.76
2022-08-05T18:10:10.488Z,53.01
2022-08-05T18:12:37.450Z,53.33
2022-08-05T18:15:04.755Z,52.94
2022-08-05T18:17:58.684Z,52.79
2022-08-05T18:20:19.373Z,52.23
2022-08-05T18:22:57.365Z,52.23
2022-08-05T18:25:25.422Z,52.87
2022-08-05T18:28:01.526Z,53.39
2022-08-05T18:30:31.089Z,53.24
2022-08-05T18:33:00.275Z,53.56
2022-08-05T18:35:49.570Z,54.08
2022-08-05T18:38:16.268Z,54.62
2022-08-05T18:41:57.225Z,54.64
2022-08-05T18:43:37.884Z,55.00
2022-08-05T18:46:09.593Z,55.84
2022-08-05T18:48:36.744Z,55.82
2022-08-05T18:52:04.357Z,55.95
2022-08-05T18:54:13.282Z,56.24
2022-08-05T18:56:40.397Z,56.81
2022-08-05T18:59:42.040Z,56.32
2022-08-05T19:01:57.005Z,56.71
2022-08-05T19:04:24.778Z,58.04
2022-08-05T19:06:51.613Z,57.34
2022-08-05T19:09:20.250Z,57.37
2022-08-05T19:11:59.999Z,57.12
2022-08-05T19:14:52.208Z,57.83
2022-08-05T19:17:14.545Z,57.46
2022-08-05T19:19:44.177Z,58.04
2022-08-05T19:22:17.090Z,57.92
2022-08-05T19:24:56.144Z,59.05
2022-08-05T19:27:23.563Z,58.58
2022-08-05T19:29:50.178Z,58.73
2022-08-05T19:32:16.619Z,58.67
2022-08-05T19:34:54.637Z,59.18
2022-08-05T19:37:30.055Z,59.73
2022-08-05T19:40:09.996Z,60.06
2022-08-05T19:42:37.079Z,60.55
2022-08-05T19:45:07.152Z,60.74
2022-08-05T19:47:37.252Z,60.63
2022-08-05T19:50:04.942Z,60.96
2022-08-05T19:52:34.088Z,60.69
2022-08-05T19:55:06.779Z,61.83
2022-08-05T19:57:49.104Z,62.11
2022-08-05T20:00:22.262Z,62.78
2022-08-05T20:02:48.696Z,63.23
2022-08-05T20:05:16.481Z,63.29
2022-08-05T20:07:53.895Z,62.81
2022-08-05T20:10:24.567Z,63.00
2022-08-05T20:12:51.909Z,62.48
2022-08-05T20:15:48.575Z,63.35
2022-08-05T20:18:10.304Z,64.23
2022-08-05T20:20:55.912Z,64.83
2022-08-05T20:23:23.159Z,65.69
2022-08-05T20:25:52.226Z,66.60
2022-08-05T20:28:20.055Z,65.82
2022-08-05T20:30:47.939Z,66.62
2022-08-05T20:33:16.168Z,66.34
2022-08-05T20:35:45.595Z,66.49
2022-08-05T20:38:14.378Z,66.22
2022-08-05T20:40:50.427Z,65.48
2022-08-05T20:43:17.348Z,66.45
2022-08-05T20:46:00.363Z,66.34
2022-08-05T20:48:27.010Z,68.16
2022-08-05T20:50:53.420Z,66.90
2022-08-05T20:53:36.576Z,66.66
2022-08-05T20:56:09.701Z,67.42
2022-08-05T20:58:37.028Z,67.39
2022-08-05T21:01:03.898Z,67.59
2022-08-05T21:03:34.468Z,68.60
2022-08-05T21:06:01.793Z,68.15
2022-08-05T21:08:42.051Z,68.46
2022-08-05T21:11:12.659Z,68.30
2022-08-05T21:13:47.931Z,67.66
2022-08-05T21:16:29.581Z,68.67
2022-08-05T21:19:00.914Z,69.31
2022-08-05T21:21:39.053Z,68.69
2022-08-05T21:24:12.725Z,68.53
2022-08-05T21:26:44.113Z,69.91
2022-08-05T21:29:40.723Z,68.38
2022-08-05T21:32:09.902Z,68.81
2022-08-05T21:34:43.552Z,69.17
2022-08-05T21:37:22.725Z,69.54
2022-08-05T21:39:49.798Z,70.42
2022-08-05T21:42:41.004Z,70.85
2022-08-05T21:45:11.807Z,70.85
2022-08-05T21:47:57.111Z,71.22
2022-08-05T21:50:24.744Z,72.60
2022-08-05T21:52:51.300Z,72.48
2022-08-05T21:55:42.841Z,72.89
2022-08-05T21:58:05.753Z,72.26
2022-08-05T22:00:32.306Z,72.13
2022-08-05T22:02:59.782Z,72.48
2022-08-05T22:05:27.494Z,71.97
2022-08-05T22:07:59.216Z,72.50
2022-08-05T22:10:29.098Z,74.74
2022-08-05T22:12:57.286Z,72.76
2022-08-05T22:15:56.472Z,73.97
2022-08-05T22:18:11.065Z,73.62
2022-08-05T22:20:38.839Z,72.54
2022-08-05T22:23:24.975Z,72.60
2022-08-05T22:26:29.794Z,72.62
2022-08-05T22:28:56.415Z,73.02
2022-08-05T22:31:22.869Z,73.15
2022-08-05T22:33:58.003Z,73.17
2022-08-05T22:36:27.541Z,73.80
2022-08-05T22:38:55.482Z,73.63
2022-08-05T22:42:05.462Z,73.08
2022-08-05T22:44:08.884Z,72.80
2022-08-05T22:46:39.807Z,73.34
2022-08-05T22:49:12.486Z,73.75
2022-08-05T22:52:04.479Z,72.72
2022-08-05T22:54:34.971Z,73.15
2022-08-05T22:57:01.568Z,73.92
2022-08-05T22:59:46.311Z,74.79
2022-08-05T23:02:16.653Z,74.42
2022-08-05T23:04:43.703Z,73.41
2022-08-05T23:07:18.217Z,74.69
2022-08-05T23:09:53.362Z,75.47
2022-08-05T23:12:28.609Z,74.64
2022-08-05T23:14:55.413Z,74.88
2022-08-05T23:17:34.625Z,75.73
2022-08-05T23:20:06.121Z,75.55
2022-08-05T23:22:43.023Z,77.26
2022-08-05T23:25:09.439Z,76.18
2022-08-05T23:27:57.540Z,76.14
2022-08-05T23:30:27.025Z,77.37
2022-08-05T23:32:55.466Z,75.34
2022-08-05T23:35:24.252Z,76.33
2022-08-05T23:37:54.935Z,75.58
2022-08-05T23:40:27.080Z,76.37
2022-08-05T23:42:53.919Z,76.43
2022-08-05T23:45:20.502Z,76.43
2022-08-05T23:47:50.273Z,77.82
2022-08-05T23:50:20.523Z,77.58
2022-08-05T23:52:49.765Z,79.60
2022-08-05T23:55:18.988Z,77.65
2022-08-05T23:57:48.957Z,77.82
